createdAt,value
2024-04-24T17:10:12.198Z,40.05
2024-04-24T17:12:41.775Z,39.77
2024-04-24T17:15:10.069Z,39.47
2024-04-24T17:17:39.518Z,39.26
2024-04-24T17:20:08.794Z,38.73
2024-04-24T17:22:37.224Z,39.05
2024-04-24T17:25:06.266Z,38.39
2024-04-24T17:27:35.643Z,38.30
2024-04-24T17:30:06.400Z,37.68
2024-04-24T17:32:37.446Z,36.90
2024-04-24T17:35:07.985Z,36.90
2024-04-24T17:37:36.874Z,37.37
2024-04-24T17:40:08.752Z,36.65
2024-04-24T17:42:37.102Z,36.26
2024-04-24T17:45:06.504Z,35.79
2024-04-24T17:47:36.798Z,36.16
2024-04-24T17:50:07.643Z,36.18
2024-04-24T17:52:38.985Z,35.94
2024-04-24T17:55:07.584Z,36.28
2024-04-24T17:57:37.577Z,35.72
2024-04-24T18:00:06.644Z,35.53
2024-04-24T18:02:36.330Z,35.73
2024-04-24T18:05:06.715Z,36.23
2024-04-24T18:07:36.565Z,35.88
2024-04-24T18:10:05.885Z,35.59
2024-04-24T18:12:35.845Z,35.49
2024-04-24T18:15:05.821Z,35.33
2024-04-24T18:17:37.289Z,34.85
2024-04-24T18:20:07.037Z,34.68
2024-04-24T18:22:38.125Z,34.52
2024-04-24T18:25:06.750Z,34.43
2024-04-24T18:27:35.675Z,34.56
2024-04-24T18:30:05.672Z,34.85
2024-04-24T18:32:37.073Z,34.12
2024-04-24T18:35:06.503Z,33.83
2024-04-24T18:37:37.405Z,34.18
2024-04-24T18:40:10.097Z,34.32
2024-04-24T18:42:38.837Z,34.40
2024-04-24T18:45:07.734Z,34.41
2024-04-24T18:47:38.962Z,33.90
2024-04-24T18:50:11.244Z,33.60
2024-04-24T18:52:40.221Z,33.22
2024-04-24T18:55:08.794Z,33.22
2024-04-24T18:57:44.388Z,33.06
2024-04-24T19:00:16.075Z,33.40
2024-04-24T19:02:45.369Z,33.30
2024-04-24T19:05:14.968Z,33.66
2024-04-24T19:07:43.771Z,33.53
2024-04-24T19:10:12.474Z,33.73
2024-04-24T19:12:41.030Z,32.92
2024-04-24T19:15:10.577Z,32.67
2024-04-24T19:17:39.339Z,33.48
2024-04-24T19:20:08.596Z,32.97
2024-04-24T19:22:39.526Z,32.91
2024-04-24T19:25:08.492Z,32.89
2024-04-24T19:27:41.267Z,33.07
2024-04-24T19:30:11.074Z,32.65
2024-04-24T19:32:44.918Z,32.22
2024-04-24T19:35:13.748Z,32.31
2024-04-24T19:37:42.320Z,32.15
2024-04-24T19:40:12.570Z,31.89
2024-04-24T19:42:41.500Z,32.58
2024-04-24T19:45:10.166Z,32.28
2024-04-24T19:47:39.052Z,32.75
2024-04-24T19:50:09.475Z,32.29
2024-04-24T19:52:37.832Z,32.50
2024-04-24T19:55:08.152Z,32.45
2024-04-24T19:57:36.858Z,32.43
2024-04-24T20:00:07.392Z,31.73
2024-04-24T20:02:36.917Z,32.08
2024-04-24T20:05:07.731Z,31.94
2024-04-24T20:07:37.260Z,31.65
2024-04-24T20:10:07.067Z,31.68
2024-04-24T20:12:35.925Z,31.67
2024-04-24T20:15:04.960Z,31.74
2024-04-24T20:17:38.571Z,31.64
2024-04-24T20:20:08.529Z,31.48
2024-04-24T20:22:37.219Z,31.40
2024-04-24T20:25:08.169Z,31.45
2024-04-24T20:27:39.157Z,31.86
2024-04-24T20:30:08.281Z,31.49
2024-04-24T20:32:37.749Z,31.41
2024-04-24T20:35:07.348Z,31.55
2024-04-24T20:37:36.894Z,31.66
2024-04-24T20:40:07.556Z,31.54
2024-04-24T20:42:36.409Z,30.99
2024-04-24T20:45:06.154Z,30.97
2024-04-24T20:47:36.512Z,30.93
2024-04-24T20:50:06.180Z,30.85
2024-04-24T20:52:37.726Z,30.94
2024-04-24T20:55:06.770Z,30.43
2024-04-24T20:57:36.608Z,30.76
2024-04-24T21:00:06.320Z,30.79
2024-04-24T21:02:37.734Z,30.55
2024-04-24T21:05:08.894Z,30.98
2024-04-24T21:07:37.266Z,30.73
2024-04-24T21:10:06.390Z,30.92
2024-04-24T21:12:36.647Z,30.68
2024-04-24T21:15:07.136Z,30.11
2024-04-24T21:17:40.061Z,29.86
2024-04-24T21:20:13.284Z,29.66
2024-04-24T21:22:41.707Z,29.55
2024-04-24T21:25:10.490Z,29.87
2024-04-24T21:27:39.558Z,29.73
2024-04-24T21:30:09.017Z,30.01
2024-04-24T21:32:39.015Z,29.86
2024-04-24T21:35:08.223Z,30.07
2024-04-24T21:37:37.411Z,30.04
2024-04-24T21:40:09.077Z,29.45
2024-04-24T21:42:37.581Z,29.62
2024-04-24T21:45:07.547Z,29.93
2024-04-24T21:47:36.829Z,29.92
2024-04-24T21:50:07.695Z,30.12
2024-04-24T21:52:36.839Z,29.79
2024-04-24T21:55:06.687Z,30.04
2024-04-24T21:57:37.309Z,30.23
2024-04-24T22:00:06.985Z,30.13
2024-04-24T22:02:39.755Z,29.98
2024-04-24T22:05:08.762Z,30.22
2024-04-24T22:07:37.426Z,30.26
2024-04-24T22:10:07.271Z,30.13
2024-04-24T22:12:37.159Z,30.25
2024-04-24T22:15:06.382Z,29.69
2024-04-24T22:17:35.806Z,29.88
2024-04-24T22:20:06.469Z,30.19
2024-04-24T22:22:36.402Z,29.79
2024-04-24T22:25:05.712Z,29.85
2024-04-24T22:27:35.473Z,29.25
2024-04-24T22:30:06.711Z,29.58
2024-04-24T22:32:37.374Z,29.25
2024-04-24T22:35:08.358Z,29.34
2024-04-24T22:37:37.991Z,29.32
2024-04-24T22:40:11.531Z,29.39
2024-04-24T22:42:40.059Z,29.62
2024-04-24T22:45:10.673Z,29.60
2024-04-24T22:47:40.404Z,29.26
2024-04-24T22:50:10.040Z,29.70
2024-04-24T22:52:38.917Z,29.40
2024-04-24T22:55:07.545Z,29.35
2024-04-24T22:57:37.776Z,29.55
2024-04-24T23:00:07.325Z,29.87
2024-04-24T23:02:39.339Z,29.41
2024-04-24T23:05:09.190Z,29.04
2024-04-24T23:07:37.672Z,28.92
2024-04-24T23:10:10.618Z,28.69
2024-04-24T23:12:39.134Z,28.95
2024-04-24T23:15:09.167Z,29.20
2024-04-24T23:17:38.001Z,29.53
2024-04-24T23:20:10.065Z,29.42
2024-04-24T23:22:39.155Z,29.64
2024-04-24T23:25:08.111Z,29.33
2024-04-24T23:27:36.766Z,29.48
2024-04-24T23:30:08.479Z,29.35
2024-04-24T23:32:37.746Z,29.50
2024-04-24T23:35:09.293Z,29.89
2024-04-24T23:37:38.852Z,29.40
2024-04-24T23:40:10.065Z,29.83
2024-04-24T23:42:38.452Z,29.57
2024-04-24T23:45:07.446Z,29.92
2024-04-24T23:47:37.816Z,29.94
2024-04-24T23:50:08.294Z,29.96
2024-04-24T23:52:38.961Z,30.25
2024-04-24T23:55:08.882Z,30.25
2024-04-24T23:57:39.275Z,30.73
